• Join FlightAware (Why Join?)
  • Login
  • US Flag 
 
07:10PM EST


 

Airport Tracker/Info


-or-


 

Live Flight TrackerFlight Track Log ✈ RPA4901 ✈ 01-May-2013 ✈ KPIT - KIAD

Flight Track Log - Related Links

Times and Time Zones

All times are in EDT time to prevent confusion due to time zone crossing. See the RPA4901 flight status page for this flight to view local times or setup timezone preferences in your user account.

Time Position Orientation Groundspeed Altitude Reporting Facility
EDT Latitude Longitude Course Direction KTS MPH feet Rate Location/Type
11:08AM 40.3667 -80.1689 162° South 235 270 6,100  Level Cleveland Center
11:09AM 40.2997 -80.1475 166° South 255 293 8,400 2,280 Climbing Cleveland Center
11:10AM 40.3011 -79.8775 161° South  Level Estimated
11:10AM 40.2372 -80.1236 164° South 269 310 10,700  Level Cleveland Center
11:11AM 40.2533 -79.7889 166° South  Level Estimated
11:11AM 40.1578 -80.0886 161° South 274 315 11,100  Level Cleveland Center
11:12AM 40.1868 -79.8533 216° Southwest  Level FlightAware Approximate
11:12AM 40.0703 -80.0622 167° South 302 348 11,100  Level Cleveland Center
11:13AM 40.1415 -79.7627 163° South  Level Estimated
11:13AM 39.9886 -80.0250 161° South 314 361 11,100  Level Cleveland Center
11:14AM 40.0962 -79.6722 162° South  Level Estimated
11:14AM 39.9072 -79.9931 163° South 314 361 11,000  Level Cleveland Center
11:15AM 39.8278 -79.9642 164° South 308 354 11,200 840 Climbing Cleveland Center
11:16AM 39.7483 -79.9325 163° South 302 348 12,700 900 Climbing Cleveland Center
11:17AM 39.6628 -79.8981 163° South 309 356 13,100 120 Climbing Cleveland Center
11:18AM 39.5917 -79.8733 165° South 336 387 13,000  Descending Washington Center
11:19AM 39.5322 -79.7919 133° Southeast 333 383 13,100  Climbing Washington Center
11:20AM 39.4942 -79.6875 115° Southeast 306 352 13,100  Level Washington Center
11:21AM 39.4558 -79.5831 115° Southeast 318 366 13,100  Level Washington Center
11:22AM 39.4175 -79.4789 115° Southeast 318 366 13,100  Level Washington Center
11:23AM 39.3769 -79.3775 117° Southeast 318 366 13,100  Level Washington Center
11:24AM 39.3581 -79.2531 101° East 310 357 13,100  Level Washington Center
11:25AM 39.3592 -79.1403 89° East 304 350 13,100 -60 Level Washington Center
11:26AM 39.3625 -79.0278 88° East 304 350 13,000 -780 Descending Washington Center
11:27AM 39.3656 -78.9178 88° East 304 350 11,600 -1,440 Descending Washington Center
11:28AM 39.3664 -78.8103 89° East 304 350 10,200 -1,260 Descending Washington Center
11:29AM 39.3711 -78.7167 86° East 286 329 9,100 -600 Descending Washington Center
11:30AM 39.3711 -78.6281 90° East 261 300 9,100  Level Washington Center
11:31AM 39.3714 -78.5314 90° East 254 292 9,100  Level Washington Center
11:32AM 39.3739 -78.4347 88° East 254 292 9,100  Level Washington Center
11:33AM 39.3761 -78.3408 88° East 254 292 9,100 -60 Level Washington Center
11:34AM 39.3781 -78.2442 88° East 254 292 9,000 -540 Descending Washington Center
11:35AM 39.3803 -78.1531 88° East 254 292 8,100 -1,260 Descending Washington Center
11:36AM 39.3800 -78.0644 90° East 254 292 6,600 -1,500 Descending Washington Center
11:37AM 39.3817 -77.9786 89° East 249 287 5,100 -780 Descending Washington Center
11:38AM 39.3792 -77.8981 92° East 235 270 5,100 -60 Level Washington Center
11:39AM 39.3681 -77.8197 100° East 230 265 5,000 -60 Descending Washington Center
11:40AM 39.3569 -77.7417 100° East 224 258 5,000  Level Washington Center
11:42AM 39.3333 -77.5500 99° East 225 259 5,100  Climbing Potomac TRACON
11:43AM 39.3000 -77.5000 131° Southeast 201 231 5,100  Level Potomac TRACON
11:44AM 39.2500 -77.4667 153° Southeast 196 226 5,100  Level Potomac TRACON
11:45AM 39.2000 -77.4667 180° South 188 216 5,100 -600 Level Potomac TRACON
11:46AM 39.1500 -77.4500 166° South 186 214 3,900 -1,140 Descending Potomac TRACON
11:47AM 39.1167 -77.4500 180° South 175 201 3,000 -1,020 Descending Potomac TRACON